Time;durP1;ratioP1;P1;durP2;ratioP2;P2;SDS_P1;SDS_P2;PMS_P1;PMS_P2;Temp;Humidity;BMP_temperature;BMP_pressure;BME280_temperature;BME280_humidity;BME280_pressure;Samples;Min_cycle;Max_cycle;Signal;HPM_P1;HPM_P2
2024/03/28 00:02:12;;;;;;;9.10;6.90;;;;;;;12.55;100.00;97399.89;177540;1255;59678;-83
2024/03/28 00:06:15;;;;;;;10.20;7.10;;;;;;;12.66;100.00;97403.92;178182;1255;44079;-82
2024/03/28 00:10:18;;;;;;;14.10;7.40;;;;;;;12.75;99.92;97393.96;178298;1255;44434;-85
2024/03/28 00:14:21;;;;;;;9.40;7.60;;;;;;;12.80;99.32;97392.59;177232;1256;46602;-83
2024/03/28 00:18:25;;;;;;;10.20;7.10;;;;;;;12.82;98.54;97396.45;178119;1256;46077;-84
2024/03/28 00:22:28;;;;;;;12.10;8.60;;;;;;;12.78;98.47;97396.21;177586;1256;57966;-85
2024/03/28 00:26:31;;;;;;;10.10;8.40;;;;;;;12.72;98.57;97391.22;177130;1254;46061;-83
2024/03/28 00:30:35;;;;;;;11.00;9.70;;;;;;;12.74;98.49;97396.52;177395;1256;46136;-84
2024/03/28 00:34:38;;;;;;;10.20;8.50;;;;;;;12.69;98.42;97404.04;178069;1256;46067;-85
2024/03/28 00:38:41;;;;;;;10.80;8.40;;;;;;;12.60;98.63;97404.39;177904;1255;46454;-84
2024/03/28 00:42:45;;;;;;;15.50;9.10;;;;;;;12.54;99.07;97396.82;177657;1256;59247;-83
2024/03/28 00:46:48;;;;;;;22.80;10.10;;;;;;;12.47;99.31;97398.81;178538;1255;45996;-87
2024/03/28 00:50:59;;;;;;;16.60;9.80;;;;;;;12.42;99.62;97397.88;177685;1255;44134;-80
2024/03/28 00:55:01;;;;;;;12.40;10.40;;;;;;;12.37;99.97;97396.37;178492;1255;45921;-83
2024/03/28 00:59:04;;;;;;;13.10;10.10;;;;;;;12.29;100.00;97394.34;177945;1256;46079;-83
2024/03/28 01:03:08;;;;;;;12.90;9.50;;;;;;;12.26;100.00;97390.23;178003;1255;60383;-85
2024/03/28 01:07:10;;;;;;;9.70;8.80;;;;;;;12.24;100.00;97381.10;177904;1255;46036;-84
2024/03/28 01:11:13;;;;;;;13.80;8.00;;;;;;;12.18;100.00;97381.04;178404;1255;45974;-84
2024/03/28 01:15:17;;;;;;;13.00;9.20;;;;;;;12.14;100.00;97382.99;177921;1255;45996;-85
2024/03/28 01:19:20;;;;;;;9.50;8.50;;;;;;;12.04;100.00;97375.60;177698;1259;46762;-85
2024/03/28 01:23:23;;;;;;;14.40;10.40;;;;;;;11.94;100.00;97372.79;177909;1256;59797;-85
2024/03/28 01:27:26;;;;;;;15.20;9.70;;;;;;;11.79;100.00;97367.47;177856;1256;46126;-85
2024/03/28 01:31:29;;;;;;;19.40;11.10;;;;;;;11.73;100.00;97361.50;181147;1257;44802;-85
2024/03/28 01:35:32;;;;;;;15.00;10.00;;;;;;;11.62;100.00;97359.50;179698;1256;44676;-85
2024/03/28 01:39:35;;;;;;;15.90;12.30;;;;;;;11.58;100.00;97351.46;178204;1256;46178;-82
2024/03/28 01:43:42;;;;;;;16.50;10.50;;;;;;;11.54;100.00;97347.56;177583;1255;58620;-83
2024/03/28 01:47:47;;;;;;;12.50;10.00;;;;;;;11.62;100.00;97330.45;178099;1255;44091;-84
2024/03/28 01:51:56;;;;;;;14.70;11.50;;;;;;;11.74;100.00;97320.77;177408;1257;46009;-86
2024/03/28 01:55:59;;;;;;;13.90;9.60;;;;;;;11.84;100.00;97313.44;177962;1255;46043;-86
2024/03/28 02:00:03;;;;;;;16.10;10.60;;;;;;;12.02;100.00;97302.84;177572;1256;46166;-85
2024/03/28 02:04:10;;;;;;;11.10;8.20;;;;;;;12.20;100.00;97293.22;177810;1255;61180;-84
2024/03/28 02:08:13;;;;;;;26.20;9.80;;;;;;;12.37;100.00;97287.90;177887;1255;46034;-84
2024/03/28 02:12:16;;;;;;;14.40;9.70;;;;;;;12.43;100.00;97281.00;177686;1256;46776;-86
2024/03/28 02:16:19;;;;;;;11.70;9.20;;;;;;;12.44;100.00;97280.91;177864;1256;46017;-86
2024/03/28 02:20:22;;;;;;;12.90;9.30;;;;;;;12.42;100.00;97286.66;177926;1256;46109;-84
2024/03/28 02:24:27;;;;;;;15.10;9.30;;;;;;;12.40;100.00;97294.23;177909;1255;57521;-82
2024/03/28 02:28:36;;;;;;;9.50;8.40;;;;;;;12.40;100.00;97296.88;177815;1255;45987;-87
2024/03/28 02:32:39;;;;;;;9.80;7.20;;;;;;;12.44;100.00;97301.49;177780;1255;46070;-83
2024/03/28 02:36:41;;;;;;;12.50;9.10;;;;;;;12.51;100.00;97298.81;177953;1255;45980;-84
2024/03/28 02:40:44;;;;;;;34.20;9.40;;;;;;;12.55;100.00;97298.16;177545;1256;46003;-81
2024/03/28 02:44:51;;;;;;;17.30;9.40;;;;;;;12.56;100.00;97292.86;177443;1255;59609;-82
2024/03/28 02:48:53;;;;;;;16.70;10.70;;;;;;;12.57;100.00;97289.46;177594;1255;45998;-82
2024/03/28 02:52:56;;;;;;;12.30;10.00;;;;;;;12.58;100.00;97284.62;177803;1256;46494;-84
2024/03/28 02:57:04;;;;;;;17.50;10.40;;;;;;;12.57;100.00;97287.95;177603;1255;46070;-82
2024/03/28 03:01:06;;;;;;;14.40;10.40;;;;;;;12.53;100.00;97286.82;178428;1255;46064;-83
2024/03/28 03:05:10;;;;;;;24.90;12.30;;;;;;;12.48;100.00;97287.33;177570;1256;58168;-88
2024/03/28 03:09:13;;;;;;;13.70;11.30;;;;;;;12.45;100.00;97283.03;177740;1255;46062;-85
2024/03/28 03:13:16;;;;;;;16.50;11.40;;;;;;;12.42;100.00;97286.51;178775;1256;45895;-86
2024/03/28 03:17:19;;;;;;;15.20;10.90;;;;;;;12.39;100.00;97283.31;178109;1255;45973;-85
2024/03/28 03:21:23;;;;;;;20.70;10.40;;;;;;;12.35;100.00;97278.36;178190;1256;46137;-86
2024/03/28 03:25:28;;;;;;;32.70;11.50;;;;;;;12.34;100.00;97271.39;178065;1255;58236;-86
2024/03/28 03:38:14;;;;;;;17.10;11.20;;;;;;;12.32;100.00;97257.34;178172;1256;46021;-86
2024/03/28 03:42:17;;;;;;;20.30;10.80;;;;;;;12.29;100.00;97255.01;178600;1256;46031;-83
2024/03/28 03:46:20;;;;;;;18.30;10.40;;;;;;;12.25;100.00;97256.30;177901;1255;60471;-83
2024/03/28 03:50:23;;;;;;;12.60;11.10;;;;;;;12.23;100.00;97259.44;178087;1255;46072;-81
2024/03/28 03:54:25;;;;;;;12.80;9.60;;;;;;;12.23;100.00;97264.59;178289;1257;45963;-80
2024/03/28 03:58:28;;;;;;;29.10;11.40;;;;;;;12.21;100.00;97262.52;179918;1255;44035;-79
2024/03/28 04:02:31;;;;;;;14.30;10.00;;;;;;;12.22;100.00;97260.50;178132;1257;46088;-82
2024/03/28 04:06:34;;;;;;;18.30;10.90;;;;;;;12.23;100.00;97256.18;177598;1255;59402;-83
2024/03/28 04:10:37;;;;;;;15.10;11.40;;;;;;;12.25;100.00;97260.45;177927;1255;46116;-86
2024/03/28 04:14:41;;;;;;;22.20;10.90;;;;;;;12.26;100.00;97257.08;178065;1256;46088;-83
2024/03/28 04:18:48;;;;;;;14.70;10.50;;;;;;;12.28;100.00;97258.51;177532;1256;45966;-79
2024/03/28 04:22:51;;;;;;;14.10;10.50;;;;;;;12.31;100.00;97262.27;178626;1255;46082;-79
2024/03/28 04:26:54;;;;;;;23.60;11.70;;;;;;;12.29;100.00;97261.95;178542;1255;59146;-80
2024/03/28 04:30:57;;;;;;;18.60;11.70;;;;;;;12.31;100.00;97256.20;177458;1255;46128;-79
2024/03/28 04:35:00;;;;;;;16.80;10.80;;;;;;;12.32;100.00;97250.94;177800;1256;46190;-79
2024/03/28 04:39:03;;;;;;;20.10;9.70;;;;;;;12.38;100.00;97252.19;179176;1255;44807;-81
2024/03/28 04:43:06;;;;;;;15.80;10.80;;;;;;;12.44;100.00;97243.38;178352;1259;46147;-82
2024/03/28 04:47:09;;;;;;;15.00;10.30;;;;;;;12.51;100.00;97246.18;178309;1255;58576;-80
2024/03/28 04:51:12;;;;;;;19.20;10.90;;;;;;;12.60;100.00;97245.92;177911;1255;44079;-81
2024/03/28 04:55:16;;;;;;;18.80;10.20;;;;;;;12.73;100.00;97244.45;177944;1255;45908;-80
2024/03/28 04:59:19;;;;;;;16.90;11.10;;;;;;;12.70;100.00;97240.34;178006;1255;46105;-82
2024/03/28 05:03:22;;;;;;;27.10;9.80;;;;;;;12.61;100.00;97240.77;178105;1255;46102;-81
2024/03/28 05:07:25;;;;;;;16.50;11.70;;;;;;;12.59;100.00;97242.54;179124;1255;61031;-81
2024/03/28 05:11:28;;;;;;;24.40;11.90;;;;;;;12.70;100.00;97245.01;178807;1256;46089;-81
2024/03/28 05:15:31;;;;;;;29.20;10.30;;;;;;;12.85;100.00;97241.43;178516;1255;45966;-79
2024/03/28 05:19:34;;;;;;;22.50;13.10;;;;;;;12.90;100.00;97234.91;177668;1256;46185;-80
2024/03/28 05:23:37;;;;;;;21.80;10.70;;;;;;;13.03;100.00;97238.77;178347;1256;46196;-80
2024/03/28 05:27:40;;;;;;;17.30;10.40;;;;;;;13.09;100.00;97232.11;177239;1256;58331;-80
2024/03/28 05:31:43;;;;;;;20.90;11.60;;;;;;;13.22;100.00;97233.69;176879;1256;46120;-80
2024/03/28 05:35:46;;;;;;;19.50;8.60;;;;;;;13.30;100.00;97230.75;177655;1255;46267;-81
2024/03/28 05:39:49;;;;;;;22.30;12.10;;;;;;;13.36;100.00;97233.16;177933;1256;46246;-80
2024/03/28 05:43:52;;;;;;;14.10;7.60;;;;;;;13.35;100.00;97240.89;177642;1256;46201;-80
2024/03/28 05:47:54;;;;;;;21.80;9.40;;;;;;;13.37;100.00;97242.32;177678;1256;59669;-80
2024/03/28 05:51:57;;;;;;;25.40;10.50;;;;;;;13.45;100.00;97244.96;179127;1256;46030;-81
2024/03/28 05:56:00;;;;;;;22.40;10.00;;;;;;;13.53;100.00;97255.46;179300;1256;220179;-80
2024/03/28 06:00:05;;;;;;;17.40;9.40;;;;;;;13.63;100.00;97248.88;178793;1256;45892;-80
2024/03/28 06:04:08;;;;;;;19.20;10.60;;;;;;;13.66;100.00;97233.00;178934;1254;45857;-79
2024/03/28 06:08:10;;;;;;;16.10;8.60;;;;;;;13.77;100.00;97245.98;177086;1256;58437;-79
2024/03/28 06:12:13;;;;;;;24.50;10.00;;;;;;;13.80;100.00;97268.41;177143;1256;46538;-79
2024/03/28 06:16:16;;;;;;;16.70;9.10;;;;;;;13.92;100.00;97265.50;177153;1260;46225;-80
2024/03/28 06:20:21;;;;;;;22.10;13.80;;;;;;;13.99;100.00;97262.02;176626;1256;46234;-79
2024/03/28 06:24:23;;;;;;;26.70;9.90;;;;;;;13.99;100.00;97275.08;177122;1256;45971;-80
2024/03/28 06:28:26;;;;;;;19.60;10.80;;;;;;;14.01;100.00;97286.81;177070;1255;58181;-79
2024/03/28 06:32:30;;;;;;;14.00;7.60;;;;;;;13.99;100.00;97285.61;177110;1256;46115;-79
2024/03/28 06:36:33;;;;;;;19.80;10.30;;;;;;;13.92;100.00;97289.13;177678;1256;45886;-79
2024/03/28 06:40:36;;;;;;;24.30;10.40;;;;;;;13.92;100.00;97297.50;177032;1255;45970;-79
2024/03/28 06:44:43;;;;;;;14.80;8.50;;;;;;;13.97;100.00;97302.52;177496;1260;46056;-79
2024/03/28 06:48:45;;;;;;;14.50;7.50;;;;;;;13.88;100.00;97338.74;178234;1255;59678;-79
2024/03/28 06:52:51;;;;;;;9.30;7.30;;;;;;;13.67;100.00;97346.96;176959;1256;46184;-80
2024/03/28 06:56:54;;;;;;;5.90;5.10;;;;;;;13.39;100.00;97339.08;178280;1256;44314;-79
2024/03/28 07:01:03;;;;;;;9.00;5.70;;;;;;;13.00;100.00;97344.80;177464;1256;45956;-79
2024/03/28 07:05:06;;;;;;;10.40;3.90;;;;;;;12.64;100.00;97362.45;177504;1256;46076;-81
2024/03/28 07:09:09;;;;;;;3.90;3.40;;;;;;;12.40;100.00;97384.19;177552;1256;59605;-80
2024/03/28 07:13:12;;;;;;;5.20;3.40;;;;;;;12.14;100.00;97414.57;177540;1259;46007;-79
2024/03/28 07:17:15;;;;;;;8.00;6.00;;;;;;;11.96;100.00;97426.98;178060;1260;46057;-80
2024/03/28 07:21:18;;;;;;;6.90;4.90;;;;;;;11.79;100.00;97434.75;177254;1256;45989;-80
2024/03/28 07:25:21;;;;;;;5.90;4.10;;;;;;;11.48;100.00;97450.19;177852;1256;46091;-79
2024/03/28 07:29:24;;;;;;;4.10;3.70;;;;;;;11.20;100.00;97447.65;177915;1256;57997;-80
2024/03/28 07:33:27;;;;;;;2.20;1.50;;;;;;;11.04;100.00;97454.52;177415;1256;46108;-79
2024/03/28 07:37:31;;;;;;;0.80;0.40;;;;;;;10.93;100.00;97464.94;177686;1255;46095;-79
2024/03/28 07:41:33;;;;;;;0.20;0.20;;;;;;;10.76;100.00;97480.92;176568;1255;46186;-79
2024/03/28 07:45:36;;;;;;;1.60;0.30;;;;;;;10.73;100.00;97487.70;178305;1255;45915;-79
2024/03/28 07:49:39;;;;;;;0.70;0.30;;;;;;;10.69;100.00;97514.84;177334;1256;59380;-80
2024/03/28 07:53:42;;;;;;;0.90;0.40;;;;;;;10.56;100.00;97511.31;177425;1256;46182;-79
2024/03/28 07:57:46;;;;;;;1.20;0.60;;;;;;;10.43;100.00;97512.52;177510;1256;46111;-79
2024/03/28 08:01:49;;;;;;;0.30;0.30;;;;;;;10.40;100.00;97525.98;179022;1256;46148;-79
2024/03/28 08:05:52;;;;;;;1.20;1.10;;;;;;;10.42;100.00;97527.65;176848;1256;46036;-79
2024/03/28 08:09:54;;;;;;;2.50;0.50;;;;;;;10.42;100.00;97516.11;176968;1256;60360;-79
2024/03/28 08:13:57;;;;;;;0.90;0.60;;;;;;;10.46;100.00;97529.85;176966;1260;46123;-80
2024/03/28 08:18:00;;;;;;;0.40;0.40;;;;;;;10.47;100.00;97540.13;178170;1256;46074;-80
2024/03/28 08:22:08;;;;;;;3.10;0.70;;;;;;;10.48;100.00;97550.48;178560;1256;46022;-80
2024/03/28 08:26:11;;;;;;;0.80;0.60;;;;;;;10.41;100.00;97564.23;178439;1254;46047;-80
2024/03/28 08:30:15;;;;;;;1.30;0.90;;;;;;;10.44;100.00;97557.19;178208;1260;59288;-79
2024/03/28 08:34:18;;;;;;;6.00;1.20;;;;;;;10.47;100.00;97567.08;178813;1260;45949;-79
2024/03/28 08:38:21;;;;;;;1.60;1.30;;;;;;;10.57;100.00;97582.41;177688;1260;46174;-79
2024/03/28 08:42:24;;;;;;;4.70;1.70;;;;;;;10.73;100.00;97599.00;177337;1260;46009;-79
2024/03/28 08:46:27;;;;;;;1.80;1.50;;;;;;;10.89;100.00;97595.19;177472;1257;46248;-79
2024/03/28 08:50:30;;;;;;;2.30;1.60;;;;;;;11.07;100.00;97604.80;177885;1257;58966;-80
2024/03/28 08:54:36;;;;;;;1.50;1.40;;;;;;;11.26;100.00;97609.34;177917;1260;44636;-80
2024/03/28 08:58:39;;;;;;;2.40;2.20;;;;;;;11.33;100.00;97609.37;177676;1256;45902;-80
2024/03/28 09:02:42;;;;;;;3.00;1.90;;;;;;;11.45;100.00;97611.16;177724;1260;46205;-79
2024/03/28 09:06:49;;;;;;;2.20;2.00;;;;;;;11.66;100.00;97619.52;177484;1259;46526;-79
2024/03/28 09:10:56;;;;;;;1.70;1.40;;;;;;;11.88;100.00;97617.56;177003;1256;58370;-80
2024/03/28 09:14:58;;;;;;;2.60;1.40;;;;;;;12.05;99.84;97624.14;177012;1256;45963;-80
2024/03/28 09:19:02;;;;;;;2.20;1.50;;;;;;;12.23;98.50;97628.09;177817;1256;45969;-80
2024/03/28 09:23:05;;;;;;;6.10;1.90;;;;;;;12.35;96.49;97629.67;178935;1259;46166;-80
2024/03/28 09:27:08;;;;;;;1.50;1.40;;;;;;;12.35;95.53;97628.77;177471;1259;46117;-80
2024/03/28 09:31:11;;;;;;;1.40;1.20;;;;;;;12.35;93.91;97618.80;177764;1258;58516;-80
2024/03/28 09:35:14;;;;;;;3.10;1.00;;;;;;;12.19;93.59;97622.19;178133;1258;46563;-81
2024/03/28 09:39:19;;;;;;;1.00;0.70;;;;;;;12.08;95.28;97617.93;177314;1259;44834;-81
2024/03/28 09:43:22;;;;;;;1.40;1.30;;;;;;;12.11;95.14;97630.77;177600;1259;46032;-80
2024/03/28 09:47:26;;;;;;;1.70;0.90;;;;;;;12.18;95.29;97639.02;177766;1259;46083;-80
2024/03/28 09:51:30;;;;;;;1.20;1.00;;;;;;;12.28;95.76;97644.27;177957;1259;60003;-80
2024/03/28 09:55:33;;;;;;;1.80;1.50;;;;;;;12.39;94.76;97646.34;178045;1258;46061;-79
2024/03/28 09:59:35;;;;;;;2.90;1.40;;;;;;;12.41;93.97;97656.23;177828;1257;46191;-79
2024/03/28 10:03:40;;;;;;;1.80;1.50;;;;;;;12.37;95.55;97671.23;177859;1260;46212;-79
2024/03/28 10:07:47;;;;;;;5.30;1.20;;;;;;;12.50;95.22;97682.23;177424;1258;46189;-79
2024/03/28 10:11:51;;;;;;;1.60;1.50;;;;;;;12.65;93.30;97698.71;177475;1256;59227;-79
2024/03/28 10:15:54;;;;;;;1.80;1.50;;;;;;;12.85;92.96;97707.60;176944;1261;46096;-79
2024/03/28 10:20:01;;;;;;;2.30;1.90;;;;;;;13.12;91.76;97708.48;176903;1256;46654;-80
2024/03/28 10:24:05;;;;;;;1.80;1.30;;;;;;;13.43;90.96;97707.11;178684;1256;46020;-80
2024/03/28 10:28:09;;;;;;;1.50;1.40;;;;;;;13.64;87.75;97715.06;178647;1256;45945;-80
2024/03/28 10:32:13;;;;;;;2.30;1.40;;;;;;;13.65;85.27;97723.55;177965;1256;58875;-80
2024/03/28 10:36:27;;;;;;;4.80;2.60;;;;;;;13.55;87.33;97726.59;179184;1257;44222;-80
2024/03/28 10:40:29;;;;;;;1.30;1.20;;;;;;;13.64;84.77;97720.98;178193;1260;46245;-79
2024/03/28 10:44:34;;;;;;;6.20;1.80;;;;;;;13.77;86.16;97729.45;177526;1260;46089;-79
2024/03/28 10:48:40;;;;;;;2.70;2.00;;;;;;;13.88;85.00;97737.52;177922;1257;44004;-83
2024/03/28 10:52:50;;;;;;;1.60;1.50;;;;;;;14.03;85.81;97735.80;178407;1257;58612;-78
2024/03/28 10:56:57;;;;;;;2.00;1.20;;;;;;;14.17;84.19;97738.95;178761;1260;46135;-78
2024/03/28 11:01:02;;;;;;;1.20;0.90;;;;;;;14.23;82.45;97741.02;178077;1257;46049;-79
2024/03/28 11:05:13;;;;;;;1.60;1.50;;;;;;;14.21;82.17;97751.06;178562;1260;44558;-77
2024/03/28 11:09:16;;;;;;;1.50;1.40;;;;;;;14.28;84.04;97747.38;178838;1255;46080;-78
2024/03/28 11:13:19;;;;;;;2.20;1.50;;;;;;;14.38;82.98;97747.55;178484;1257;58160;-78
2024/03/28 11:17:24;;;;;;;1.50;1.40;;;;;;;14.49;83.40;97747.41;177543;1257;46266;-79
2024/03/28 11:21:28;;;;;;;0.90;0.60;;;;;;;14.85;83.64;97744.80;178532;1255;46038;-79
2024/03/28 11:25:35;;;;;;;1.20;0.90;;;;;;;15.15;78.38;97741.48;178414;1256;46112;-77
2024/03/28 11:29:42;;;;;;;1.80;1.40;;;;;;;15.40;78.52;97739.02;178656;1260;46250;-77
2024/03/28 11:33:45;;;;;;;0.90;0.90;;;;;;;15.64;76.86;97735.95;179764;1256;58469;-78
2024/03/28 11:37:49;;;;;;;3.40;2.80;;;;;;;15.99;77.64;97725.10;177937;1254;45984;-78
2024/03/28 11:41:53;;;;;;;1.50;1.40;;;;;;;16.42;78.20;97733.58;179526;1256;44098;-80
2024/03/28 11:46:00;;;;;;;2.70;1.90;;;;;;;16.72;73.34;97730.30;177164;1255;46006;-78
2024/03/28 11:50:07;;;;;;;1.80;1.60;;;;;;;16.86;71.59;97724.05;178657;1259;44190;-78
2024/03/28 11:54:17;;;;;;;1.80;1.40;;;;;;;16.97;69.53;97728.20;178912;1257;58294;-78
2024/03/28 11:58:31;;;;;;;2.60;1.80;;;;;;;17.07;70.44;97735.24;179756;1257;44806;-79
2024/03/28 12:02:33;;;;;;;1.90;1.80;;;;;;;16.93;69.18;97736.21;178085;1259;46070;-79
2024/03/28 12:06:37;;;;;;;2.40;1.70;;;;;;;16.81;69.00;97745.36;177122;1257;46114;-78
2024/03/28 12:10:40;;;;;;;3.60;2.10;;;;;;;16.85;69.48;97760.33;179591;1260;45141;-77
2024/03/28 12:14:43;;;;;;;2.50;1.90;;;;;;;16.78;69.80;97760.52;179051;1257;60741;-78
2024/03/28 12:18:45;;;;;;;1.50;1.20;;;;;;;16.85;70.75;97767.98;178345;1254;46117;-78
2024/03/28 12:22:54;;;;;;;3.20;2.30;;;;;;;17.09;68.67;97775.95;178082;1257;45969;-78
2024/03/28 12:26:57;;;;;;;2.90;2.50;;;;;;;17.23;68.58;97778.52;178816;1257;46232;-78
2024/03/28 12:31:02;;;;;;;1.90;1.60;;;;;;;17.31;67.45;97790.67;177947;1257;45968;-78
2024/03/28 12:35:06;;;;;;;2.00;1.00;;;;;;;17.26;64.62;97804.59;177781;1257;58286;-79
2024/03/28 12:39:09;;;;;;;1.30;1.20;;;;;;;17.13;63.50;97810.70;178538;1257;45067;-78
2024/03/28 12:43:16;;;;;;;1.50;1.30;;;;;;;17.10;63.90;97822.96;178521;1256;46111;-78
2024/03/28 12:47:19;;;;;;;1.40;1.20;;;;;;;17.11;63.17;97828.81;178237;1257;44309;-78
2024/03/28 12:51:22;;;;;;;1.20;0.80;;;;;;;17.04;62.57;97832.05;177939;1257;44217;-79
2024/03/28 12:55:26;;;;;;;1.90;1.20;;;;;;;17.04;62.02;97830.77;177319;1255;58076;-79
2024/03/28 12:59:29;;;;;;;4.50;1.20;;;;;;;16.92;60.16;97832.30;179327;1257;44272;-79
2024/03/28 13:03:32;;;;;;;2.10;0.90;;;;;;;16.88;60.93;97836.05;179163;1257;45973;-79
2024/03/28 13:07:35;;;;;;;3.50;1.00;;;;;;;16.96;59.94;97839.83;178340;1256;46774;-79
2024/03/28 13:11:39;;;;;;;8.00;1.20;;;;;;;16.95;58.78;97840.45;179484;1257;46013;-78
2024/03/28 13:15:42;;;;;;;1.10;0.70;;;;;;;17.00;58.48;97840.00;178568;1256;58430;-78
2024/03/28 13:19:47;;;;;;;3.30;0.70;;;;;;;16.91;58.76;97832.70;180174;1255;45316;-78
2024/03/28 13:23:53;;;;;;;;;;;;;;;16.94;58.72;97834.45;180847;1255;43843;-79
2024/03/28 13:27:56;;;;;;;1.00;0.80;;;;;;;17.06;57.88;97828.35;179619;1256;45737;-80
2024/03/28 13:32:01;;;;;;;1.10;0.50;;;;;;;17.14;51.80;97829.30;181203;1257;43903;-80
2024/03/28 13:36:08;;;;;;;1.10;0.20;;;;;;;17.13;47.34;97831.81;179500;1256;58234;-80
2024/03/28 13:40:13;;;;;;;0.60;0.40;;;;;;;17.16;49.13;97829.98;178100;1256;46086;-80
2024/03/28 13:44:21;;;;;;;0.50;0.30;;;;;;;17.27;48.82;97841.08;178680;1255;45988;-79
2024/03/28 13:48:28;;;;;;;0.30;0.20;;;;;;;17.31;45.99;97848.00;178305;1256;46071;-78
2024/03/28 13:52:36;;;;;;;1.00;0.30;;;;;;;17.34;46.28;97847.16;178834;1256;46171;-80
2024/03/28 13:57:02;;;;;;;0.80;0.10;;;;;;;17.37;47.64;97845.95;178904;1256;59770;-80
2024/03/28 14:01:10;;;;;;;3.50;0.50;;;;;;;17.32;45.48;97849.69;179305;1255;45888;-83
2024/03/28 14:05:13;;;;;;;1.90;0.40;;;;;;;17.38;46.59;97856.66;179245;1255;46007;-80
2024/03/28 14:09:17;;;;;;;5.30;0.70;;;;;;;17.41;46.51;97861.24;177537;1255;46115;-80
2024/03/28 14:13:20;;;;;;;1.90;1.00;;;;;;;17.48;50.65;97873.79;178199;1255;46089;-79
2024/03/28 14:17:23;;;;;;;1.30;0.60;;;;;;;17.53;52.27;97878.23;178431;1259;58324;-80
2024/03/28 14:21:26;;;;;;;2.20;0.70;;;;;;;17.62;52.61;97888.34;177409;1256;46004;-80
2024/03/28 14:25:30;;;;;;;1.80;0.50;;;;;;;17.76;52.55;97890.44;178820;1254;44287;-81
2024/03/28 14:29:34;;;;;;;0.10;0.10;;;;;;;17.85;50.79;97894.27;178862;1256;46203;-81
2024/03/28 14:33:37;;;;;;;2.00;0.40;;;;;;;17.94;52.58;97902.18;177832;1257;46543;-83
2024/03/28 14:37:40;;;;;;;0.80;0.60;;;;;;;17.95;50.73;97904.73;178399;1255;60833;-81
2024/03/28 14:41:42;;;;;;;4.30;0.50;;;;;;;17.54;49.04;97909.63;178648;1256;46099;-81
2024/03/28 14:45:45;;;;;;;2.60;0.50;;;;;;;17.20;50.05;97917.24;179174;1255;46096;-80
2024/03/28 14:49:52;;;;;;;2.50;0.90;;;;;;;16.83;50.52;97921.55;179054;1255;47093;-81
2024/03/28 14:53:55;;;;;;;0.80;0.50;;;;;;;16.53;51.21;97922.35;178842;1255;46013;-82
2024/03/28 14:57:58;;;;;;;1.40;0.50;;;;;;;16.30;52.37;97924.19;178561;1255;59911;-81
2024/03/28 15:02:01;;;;;;;1.10;0.70;;;;;;;16.15;53.15;97926.91;177337;1255;45959;-81
2024/03/28 15:06:04;;;;;;;2.50;0.80;;;;;;;16.02;53.40;97933.14;178059;1255;46222;-80
2024/03/28 15:10:08;;;;;;;23.70;2.70;;;;;;;15.89;54.31;97942.42;177532;1257;46486;-81
2024/03/28 15:14:11;;;;;;;1.00;0.60;;;;;;;15.69;54.54;97953.02;178184;1256;44720;-81
2024/03/28 15:18:14;;;;;;;0.90;0.70;;;;;;;15.53;55.89;97960.34;178929;1255;59569;-80
2024/03/28 15:22:17;;;;;;;2.00;0.90;;;;;;;15.41;55.26;97963.95;178199;1255;45116;-80
2024/03/28 15:26:19;;;;;;;1.80;1.00;;;;;;;15.35;55.96;97973.13;178242;1255;46186;-81
2024/03/28 15:30:22;;;;;;;2.60;1.50;;;;;;;15.31;56.74;97980.38;178656;1255;44329;-79
2024/03/28 15:34:25;;;;;;;0.60;0.60;;;;;;;15.27;55.72;97987.08;181282;1255;44939;-78
2024/03/28 15:38:29;;;;;;;2.10;0.90;;;;;;;15.27;56.76;97989.60;180909;1255;58149;-79
2024/03/28 15:42:36;;;;;;;0.60;0.60;;;;;;;15.21;55.17;97991.64;178723;1256;45969;-78
2024/03/28 15:46:42;;;;;;;2.60;1.30;;;;;;;15.17;55.98;97992.12;180444;1255;46165;-78
2024/03/28 15:50:45;;;;;;;1.90;1.30;;;;;;;15.10;56.26;97996.45;179802;1256;46095;-78
2024/03/28 15:54:48;;;;;;;2.70;1.40;;;;;;;15.03;56.42;97999.28;180227;1255;46147;-78
2024/03/28 15:58:52;;;;;;;1.20;0.80;;;;;;;14.94;56.47;98007.02;179173;1255;58222;-78
2024/03/28 16:02:55;;;;;;;3.00;1.40;;;;;;;14.89;56.63;98013.90;179222;1256;46102;-77
2024/03/28 16:07:00;;;;;;;1.80;0.80;;;;;;;14.82;57.85;98018.50;181384;1255;44210;-78
2024/03/28 16:11:03;;;;;;;2.70;0.80;;;;;;;14.72;58.26;98026.48;179062;1255;46081;-77
2024/03/28 16:15:06;;;;;;;1.50;1.40;;;;;;;14.63;58.11;98036.77;178375;1255;46250;-78
2024/03/28 16:19:12;;;;;;;5.90;2.40;;;;;;;14.58;59.60;98055.55;178661;1255;59573;-78
2024/03/28 16:23:15;;;;;;;4.90;1.10;;;;;;;14.47;58.90;98069.61;178116;1256;46083;-78
2024/03/28 16:27:19;;;;;;;1.70;1.00;;;;;;;14.36;58.30;98077.30;177168;1256;46119;-78
2024/03/28 16:31:21;;;;;;;4.70;1.30;;;;;;;14.17;60.60;98091.11;177093;1255;46103;-78
2024/03/28 16:35:24;;;;;;;0.90;0.60;;;;;;;13.92;61.50;98100.07;177424;1254;46077;-78
2024/03/28 16:39:27;;;;;;;2.20;1.00;;;;;;;13.77;63.24;98111.84;177295;1255;59635;-78
2024/03/28 16:43:30;;;;;;;2.20;1.00;;;;;;;13.57;63.05;98119.66;177238;1255;45968;-78
2024/03/28 16:47:33;;;;;;;1.60;0.50;;;;;;;13.41;64.34;98128.14;177591;1255;46074;-79
2024/03/28 16:51:35;;;;;;;1.10;0.30;;;;;;;13.33;65.33;98131.13;177257;1256;46115;-78
2024/03/28 16:55:39;;;;;;;2.00;0.60;;;;;;;13.15;66.13;98136.77;177392;1255;45902;-77
2024/03/28 16:59:42;;;;;;;2.10;1.00;;;;;;;13.07;66.85;98146.27;176980;1256;58921;-77
2024/03/28 17:03:45;;;;;;;2.60;0.80;;;;;;;13.00;67.47;98144.48;177106;1255;46033;-77
2024/03/28 17:07:50;;;;;;;2.90;1.00;;;;;;;12.93;68.51;98156.08;177160;1259;46136;-77
2024/03/28 17:11:52;;;;;;;1.90;0.90;;;;;;;12.86;69.82;98161.57;176450;1255;46065;-77
2024/03/28 17:16:03;;;;;;;1.80;0.70;;;;;;;12.74;70.91;98164.98;176710;1256;46407;-77
2024/03/28 17:20:06;;;;;;;2.70;2.00;;;;;;;12.63;71.88;98163.50;177403;1256;57837;-77
2024/03/28 17:24:10;;;;;;;5.20;3.10;;;;;;;12.52;71.81;98169.64;176858;1260;46093;-78
2024/03/28 17:28:13;;;;;;;6.90;2.50;;;;;;;12.42;73.17;98170.98;176907;1255;45883;-77
2024/03/28 17:32:16;;;;;;;3.00;1.30;;;;;;;12.35;73.69;98163.73;177257;1255;46147;-77
2024/03/28 17:36:19;;;;;;;3.90;1.80;;;;;;;12.22;74.31;98157.61;177144;1255;45947;-77
2024/03/28 17:40:22;;;;;;;3.70;2.20;;;;;;;12.13;74.17;98162.88;177294;1256;59609;-77
2024/03/28 17:44:25;;;;;;;5.70;3.10;;;;;;;12.09;73.73;98163.33;177614;1256;46131;-80
2024/03/28 17:48:28;;;;;;;10.70;3.20;;;;;;;12.12;74.19;98172.54;177904;1256;45959;-79
2024/03/28 17:52:31;;;;;;;3.70;2.00;;;;;;;12.11;74.58;98180.49;177913;1255;46085;-80
2024/03/28 17:56:35;;;;;;;3.10;2.10;;;;;;;12.10;74.86;98187.20;177605;1255;196261;-80
2024/03/28 18:00:38;;;;;;;3.90;2.00;;;;;;;12.11;75.23;98188.90;177928;1256;58096;-79
2024/03/28 18:04:43;;;;;;;3.50;2.80;;;;;;;12.07;75.72;98201.53;177791;1255;46041;-78
2024/03/28 18:08:46;;;;;;;16.30;3.00;;;;;;;12.06;76.02;98202.77;177389;1255;46077;-79
2024/03/28 18:12:49;;;;;;;6.40;1.30;;;;;;;12.04;76.22;98209.00;178277;1256;46099;-79
2024/03/28 18:16:53;;;;;;;2.50;0.90;;;;;;;12.00;76.37;98214.83;178758;1255;45973;-78
2024/03/28 18:21:00;;;;;;;3.50;2.30;;;;;;;11.96;76.86;98219.42;177857;1255;60062;-79
2024/03/28 18:25:03;;;;;;;9.10;3.70;;;;;;;11.91;76.56;98218.59;178502;1256;45982;-78
2024/03/28 18:29:06;;;;;;;4.50;2.40;;;;;;;11.87;75.90;98238.38;178440;1255;46546;-78
2024/03/28 18:33:08;;;;;;;5.90;2.40;;;;;;;11.84;76.36;98234.25;178233;1255;44231;-79
2024/03/28 18:37:11;;;;;;;3.20;1.60;;;;;;;11.82;77.28;98236.91;179904;1255;45990;-79
2024/03/28 18:41:15;;;;;;;3.90;1.10;;;;;;;11.73;76.41;98244.45;180995;1255;59819;-79
2024/03/28 18:45:19;;;;;;;1.90;1.00;;;;;;;11.73;76.50;98253.42;179764;1255;44633;-79
2024/03/28 18:49:22;;;;;;;1.40;1.00;;;;;;;11.72;75.91;98267.17;178551;1256;46403;-78